Terminal Aerodrome Forecast
Issued by NWS Corpus Christi, TX

Home | Current Version | Previous Version | Text Only | Print | Product List | Glossary On
Versions: 1 2 3 4 5 6 7 8 9 10 11 12 13 14 15 16 17
000
FTUS44 KCRP 310528
TAFCRP
TAF
KCRP 310528Z 3106/0106 VRB06KT P6SM SCT250
     FM311000 VRB03KT 4SM MIFG FEW010
      TEMPO 3110/3113 2SM MIFG FEW010
     FM311300 VRB06KT P6SM SCT025 SCT035
     FM312000 10010KT P6SM VCSH SCT035 BKN100
     FM010200 16008KT P6SM BKN250=

USA.gov is the U.S. government's official web portal to all federal, state and local government web resources and services.